Buoy 46563

sailwx.info

Track history (hours):
 
Tides and Currents Weather Stations Pressure Air Temp Water Temp Dewpoint Dewpoint Depression Visibility Wind Speed Wind Dir Waves Ship Positions

Drifting buoy 46563

Last reported at 2014-Dec-18 01:00 UTC. Time now 2014-Dec-18 02:31 UTC.
Position N 25°54' W 123°32'.

Water temperature 21.6 ° C

Date/timePositionNaut miles runAvg speedWind from/ knotsBaromVisibWave heightAir tempDewpointWater temp
2014-Dec-18 01:00N 25°54' W 123°32'0 0.0 21.6
2014-Dec-18 00:00N 25°54' W 123°32'0 0.4 21.7
2014-Dec-17 23:00N 25°54' W 123°33'0 0.0 21.7
2014-Dec-17 21:00N 25°54' W 123°33'2 0.8 21.7
2014-Dec-17 19:00N 25°56' W 123°33'0 0.0 21.6
2014-Dec-17 18:00N 25°56' W 123°33'0 0.2 21.5
2014-Dec-17 17:00N 25°56' W 123°33'1 0.7 21.5
2014-Dec-17 16:00N 25°56' W 123°34'0 0.2 21.5
2014-Dec-17 14:00N 25°57' W 123°34'1 0.6 21.5
2014-Dec-17 13:00N 25°57' W 123°35'0 0.0 21.5
2014-Dec-17 12:00N 25°57' W 123°35'0 0.0 21.4
2014-Dec-17 11:00N 25°57' W 123°35'0 0.4 21.4
2014-Dec-17 10:00N 25°57' W 123°35'0 0.3 21.4
2014-Dec-17 09:00N 25°57' W 123°35'0 0.0 21.4
2014-Dec-17 06:00N 25°57' W 123°35'0 0.2 21.4
2014-Dec-17 05:00N 25°57' W 123°35'1 0.3 21.4
2014-Dec-17 03:00N 25°58' W 123°35'1 0.4 21.5
2014-Dec-17 01:00N 25°58' W 123°35'1 1.1 21.5
2014-Dec-17 00:00N 25°59' W 123°36'1 0.8 21.5
2014-Dec-16 23:00N 25°60' W 123°36'0 0.0 21.5
2014-Dec-16 21:00N 25°60' W 123°36'0 0.0 21.5
2014-Dec-16 20:00N 25°60' W 123°36'2 1.0 21.5
2014-Dec-16 18:00N 26°02' W 123°38'0 0.0 21.5
2014-Dec-16 17:00N 26°02' W 123°38'5 0.3 21.5
2014-Dec-15 23:00N 26°05' W 123°43'0 0.0 21.5
2014-Dec-15 21:00N 26°05' W 123°43'1 0.2 21.5
2014-Dec-15 18:00N 26°05' W 123°43'2 2.0 21.4
2014-Dec-15 17:00N 26°07' W 123°44'0 0.0 21.4
2014-Dec-15 16:00N 26°07' W 123°44'1 0.5 21.4
2014-Dec-15 14:00N 26°07' W 123°46'0 0.0 21.4
2014-Dec-15 13:00N 26°07' W 123°46'1 1.2 21.4
2014-Dec-15 12:00N 26°06' W 123°47'0 0.0 21.4
2014-Dec-15 11:00N 26°06' W 123°47'0 0.0 21.4
2014-Dec-15 10:00N 26°06' W 123°47'0 0.0 21.4
2014-Dec-15 09:00N 26°06' W 123°47'0 0.0 21.4
2014-Dec-15 08:00N 26°06' W 123°47'0 0.0 21.4
2014-Dec-15 05:00N 26°06' W 123°47'0 0.0 21.4
2014-Dec-15 04:00N 26°06' W 123°47'0 0.0 21.4
2014-Dec-15 03:00N 26°06' W 123°47'0 0.0 21.5
2014-Dec-15 02:00N 26°06' W 123°47'1 0.8 21.5
2014-Dec-15 01:00N 26°07' W 123°46'1 0.3 21.5
2014-Dec-14 23:00N 26°07' W 123°47'1 1.3 21.5
2014-Dec-14 22:00N 26°08' W 123°46'0 0.0 21.5
2014-Dec-14 21:00N 26°08' W 123°46'1 0.3 21.6
2014-Dec-14 18:00N 26°08' W 123°47'0 0.0 21.5
2014-Dec-14 17:00N 26°08' W 123°47'1 1.3 21.5
2014-Dec-14 16:00N 26°10' W 123°47'0 0.0 21.5
2014-Dec-14 14:00N 26°10' W 123°47'1 0.5 21.5
2014-Dec-14 13:00N 26°10' W 123°48'0 0.0 21.5
2014-Dec-14 12:00N 26°10' W 123°48'1 0.6 21.5
2014-Dec-14 11:00N 26°10' W 123°48'0 0.0 21.5
2014-Dec-14 10:00N 26°10' W 123°48'1 0.5 21.5
2014-Dec-14 09:00N 26°10' W 123°49'0 0.0 21.5
2014-Dec-14 08:00N 26°10' W 123°49'1 0.3 21.5
2014-Dec-14 06:00N 26°10' W 123°49'0 0.0 21.6
2014-Dec-14 05:00N 26°10' W 123°49'1 0.6 21.5
2014-Dec-14 04:00N 26°11' W 123°49'1 0.5 21.6
2014-Dec-14 03:00N 26°11' W 123°50'1 0.3 21.6
2014-Dec-14 00:00N 26°11' W 123°49'0 0.3 21.6
2014-Dec-13 23:00N 26°11' W 123°48'7 0.3 21.6
2014-Dec-12 22:00N 26°18' W 123°50'0 0.1 21.7
2014-Dec-12 19:00N 26°18' W 123°50'3 0.4 21.7
2014-Dec-12 13:00N 26°20' W 123°52'0 0.3 21.7
2014-Dec-12 12:00N 26°20' W 123°52'1 0.2 21.7
2014-Dec-12 09:00N 26°21' W 123°52'1 0.2 21.7
2014-Dec-12 04:00N 26°22' W 123°53'1 0.4 21.7
2014-Dec-12 02:00N 26°22' W 123°54'0 0.5 21.6
2014-Dec-12 01:00N 26°22' W 123°54'0 0.3 21.6
2014-Dec-12 00:00N 26°22' W 123°54'0 0.2 21.6
2014-Dec-11 23:00N 26°22' W 123°55'0 0.0 21.6
2014-Dec-11 22:00N 26°22' W 123°55'1 0.5 21.7
2014-Dec-11 19:00N 26°23' W 123°56'0 0.0 21.7
2014-Dec-11 18:00N 26°23' W 123°56'2 0.4 21.7
2014-Dec-11 13:00N 26°23' W 123°58'0 0.0 21.7
2014-Dec-11 12:00N 26°23' W 123°58'0 0.4 21.7
2014-Dec-11 11:00N 26°23' W 123°58'0 0.0 21.7
2014-Dec-11 10:00N 26°23' W 123°58'1 1.1 21.6
2014-Dec-11 09:00N 26°22' W 123°59'0 0.0 21.6
2014-Dec-11 06:00N 26°22' W 123°59'1 1.4 21.7
2014-Dec-11 05:00N 26°23' W 123°58'1 1.4 21.7
2014-Dec-11 04:00N 26°22' W 123°59'2 1.7 21.7
2014-Dec-11 03:00N 26°23' W 123°58'0 0.0 21.7
2014-Dec-11 01:00N 26°23' W 123°58'1 0.6 21.6
2014-Dec-11 00:00N 26°24' W 123°58'0 0.1 21.7
2014-Dec-10 23:00N 26°24' W 123°58'0 0.0 21.7
2014-Dec-10 22:00N 26°24' W 123°58'0 0.2 21.7
2014-Dec-10 21:00N 26°24' W 123°59'0 0.1 21.7
2014-Dec-10 20:00N 26°24' W 123°59'0 0.0 21.7
2014-Dec-10 18:00N 26°24' W 123°59'1 1.1 21.7
2014-Dec-10 17:00N 26°25' W 123°59'0 0.0 21.7
2014-Dec-10 14:00N 26°25' W 123°59'1 0.8 21.7
2014-Dec-10 13:00N 26°25' W 124°00'0 0.0 21.7
2014-Dec-10 12:00N 26°25' W 124°00'0 0.3 21.7
2014-Dec-10 11:00N 26°25' W 124°00'0 0.2 21.7
2014-Dec-10 09:00N 26°25' W 124°00'1 0.2 21.7
2014-Dec-10 05:00N 26°24' W 123°59'0 0.4 21.7
2014-Dec-10 04:00N 26°24' W 123°59'1 0.7 21.7
2014-Dec-10 02:00N 26°26' W 123°59'1 0.4 21.8
2014-Dec-10 00:00N 26°27' W 123°58'1 0.6 21.8
2014-Dec-09 23:00N 26°27' W 123°59'0 0.0 21.8
2014-Dec-09 21:00N 26°27' W 123°59'0 0.0 21.8
2014-Dec-09 20:00N 26°27' W 123°59'1 0.4 21.8
2014-Dec-09 18:00N 26°28' W 123°59'0 0.4 21.7
2014-Dec-09 17:00N 26°28' W 123°59'0 0.0 21.7
2014-Dec-09 16:00N 26°28' W 123°59'1 0.5 21.7
2014-Dec-09 14:00N 26°29' W 123°59'1 0.8 21.7
2014-Dec-09 13:00N 26°29' W 124°00'0 0.1 21.7
2014-Dec-09 10:00N 26°29' W 124°00'0 0.0 21.7
2014-Dec-09 09:00N 26°29' W 124°00'1 0.2 21.7
2014-Dec-09 06:00N 26°29' W 123°60'0 0.0 21.7
2014-Dec-09 05:00N 26°29' W 123°60'0 0.0 21.7
2014-Dec-09 04:00N 26°29' W 123°60'1 0.3 21.7
2014-Dec-09 02:00N 26°29' W 123°59'1 0.2 21.7
2014-Dec-08 21:00N 26°30' W 123°59'1 0.2 21.8
2014-Dec-08 18:00N 26°31' W 123°58'0 0.0 21.6
2014-Dec-08 17:00N 26°31' W 123°58'0 0.0 21.6
2014-Dec-08 16:00N 26°31' W 123°58'0 0.1 21.6
2014-Dec-08 14:00N 26°31' W 123°58'0 0.4 21.6
2014-Dec-08 13:00N 26°31' W 123°59'0 0.1 21.6
2014-Dec-08 12:00N 26°31' W 123°59'0 0.4 21.6
2014-Dec-08 11:00N 26°31' W 123°58'0 0.1 21.6
2014-Dec-08 06:00N 26°31' W 123°58'0 0.2 21.6
2014-Dec-08 03:00N 26°31' W 123°58'1 0.3 21.6
2014-Dec-08 01:00N 26°32' W 123°58'   21.6
Track history (hours):
 
Tides and Currents Weather Stations Pressure Air Temp Water Temp Dewpoint Dewpoint Depression Visibility Wind Speed Wind Dir Waves Ship Positions

Drifting buoy 46563

Last reported at 2014-Dec-18 01:00 UTC. Time now 2014-Dec-18 02:31 UTC.
Position N 25°54' W 123°32'.

Water temperature 21.6 ° C

Date/timePositionNaut miles runAvg speedWind from/ knotsBaromVisibWave heightAir tempDewpointWater temp
2014-Dec-18 01:00N 25°54' W 123°32'0 0.0 21.6
2014-Dec-18 00:00N 25°54' W 123°32'0 0.4 21.7
2014-Dec-17 23:00N 25°54' W 123°33'0 0.0 21.7
2014-Dec-17 21:00N 25°54' W 123°33'2 0.8 21.7
2014-Dec-17 19:00N 25°56' W 123°33'0 0.0 21.6
2014-Dec-17 18:00N 25°56' W 123°33'0 0.2 21.5
2014-Dec-17 17:00N 25°56' W 123°33'1 0.7 21.5
2014-Dec-17 16:00N 25°56' W 123°34'0 0.2 21.5
2014-Dec-17 14:00N 25°57' W 123°34'1 0.6 21.5
2014-Dec-17 13:00N 25°57' W 123°35'0 0.0 21.5
2014-Dec-17 12:00N 25°57' W 123°35'0 0.0 21.4
2014-Dec-17 11:00N 25°57' W 123°35'0 0.4 21.4
2014-Dec-17 10:00N 25°57' W 123°35'0 0.3 21.4
2014-Dec-17 09:00N 25°57' W 123°35'0 0.0 21.4
2014-Dec-17 06:00N 25°57' W 123°35'0 0.2 21.4
2014-Dec-17 05:00N 25°57' W 123°35'1 0.3 21.4
2014-Dec-17 03:00N 25°58' W 123°35'1 0.4 21.5
2014-Dec-17 01:00N 25°58' W 123°35'1 1.1 21.5
2014-Dec-17 00:00N 25°59' W 123°36'1 0.8 21.5
2014-Dec-16 23:00N 25°60' W 123°36'0 0.0 21.5
2014-Dec-16 21:00N 25°60' W 123°36'0 0.0 21.5
2014-Dec-16 20:00N 25°60' W 123°36'2 1.0 21.5
2014-Dec-16 18:00N 26°02' W 123°38'0 0.0 21.5
2014-Dec-16 17:00N 26°02' W 123°38'5 0.3 21.5
2014-Dec-15 23:00N 26°05' W 123°43'0 0.0 21.5
2014-Dec-15 21:00N 26°05' W 123°43'1 0.2 21.5
2014-Dec-15 18:00N 26°05' W 123°43'2 2.0 21.4
2014-Dec-15 17:00N 26°07' W 123°44'0 0.0 21.4
2014-Dec-15 16:00N 26°07' W 123°44'1 0.5 21.4
2014-Dec-15 14:00N 26°07' W 123°46'0 0.0 21.4
2014-Dec-15 13:00N 26°07' W 123°46'1 1.2 21.4
2014-Dec-15 12:00N 26°06' W 123°47'0 0.0 21.4
2014-Dec-15 11:00N 26°06' W 123°47'0 0.0 21.4
2014-Dec-15 10:00N 26°06' W 123°47'0 0.0 21.4
2014-Dec-15 09:00N 26°06' W 123°47'0 0.0 21.4
2014-Dec-15 08:00N 26°06' W 123°47'0 0.0 21.4
2014-Dec-15 05:00N 26°06' W 123°47'0 0.0 21.4
2014-Dec-15 04:00N 26°06' W 123°47'0 0.0 21.4
2014-Dec-15 03:00N 26°06' W 123°47'0 0.0 21.5
2014-Dec-15 02:00N 26°06' W 123°47'1 0.8 21.5
2014-Dec-15 01:00N 26°07' W 123°46'1 0.3 21.5
2014-Dec-14 23:00N 26°07' W 123°47'1 1.3 21.5
2014-Dec-14 22:00N 26°08' W 123°46'0 0.0 21.5
2014-Dec-14 21:00N 26°08' W 123°46'1 0.3 21.6
2014-Dec-14 18:00N 26°08' W 123°47'0 0.0 21.5
2014-Dec-14 17:00N 26°08' W 123°47'1 1.3 21.5
2014-Dec-14 16:00N 26°10' W 123°47'0 0.0 21.5
2014-Dec-14 14:00N 26°10' W 123°47'1 0.5 21.5
2014-Dec-14 13:00N 26°10' W 123°48'0 0.0 21.5
2014-Dec-14 12:00N 26°10' W 123°48'1 0.6 21.5
2014-Dec-14 11:00N 26°10' W 123°48'0 0.0 21.5
2014-Dec-14 10:00N 26°10' W 123°48'1 0.5 21.5
2014-Dec-14 09:00N 26°10' W 123°49'0 0.0 21.5
2014-Dec-14 08:00N 26°10' W 123°49'1 0.3 21.5
2014-Dec-14 06:00N 26°10' W 123°49'0 0.0 21.6
2014-Dec-14 05:00N 26°10' W 123°49'1 0.6 21.5
2014-Dec-14 04:00N 26°11' W 123°49'1 0.5 21.6
2014-Dec-14 03:00N 26°11' W 123°50'1 0.3 21.6
2014-Dec-14 00:00N 26°11' W 123°49'0 0.3 21.6
2014-Dec-13 23:00N 26°11' W 123°48'7 0.3 21.6
2014-Dec-12 22:00N 26°18' W 123°50'0 0.1 21.7
2014-Dec-12 19:00N 26°18' W 123°50'3 0.4 21.7
2014-Dec-12 13:00N 26°20' W 123°52'0 0.3 21.7
2014-Dec-12 12:00N 26°20' W 123°52'1 0.2 21.7
2014-Dec-12 09:00N 26°21' W 123°52'1 0.2 21.7
2014-Dec-12 04:00N 26°22' W 123°53'1 0.4 21.7
2014-Dec-12 02:00N 26°22' W 123°54'0 0.5 21.6
2014-Dec-12 01:00N 26°22' W 123°54'0 0.3 21.6
2014-Dec-12 00:00N 26°22' W 123°54'0 0.2 21.6
2014-Dec-11 23:00N 26°22' W 123°55'0 0.0 21.6
2014-Dec-11 22:00N 26°22' W 123°55'1 0.5 21.7
2014-Dec-11 19:00N 26°23' W 123°56'0 0.0 21.7
2014-Dec-11 18:00N 26°23' W 123°56'2 0.4 21.7
2014-Dec-11 13:00N 26°23' W 123°58'0 0.0 21.7
2014-Dec-11 12:00N 26°23' W 123°58'0 0.4 21.7
2014-Dec-11 11:00N 26°23' W 123°58'0 0.0 21.7
2014-Dec-11 10:00N 26°23' W 123°58'1 1.1 21.6
2014-Dec-11 09:00N 26°22' W 123°59'0 0.0 21.6
2014-Dec-11 06:00N 26°22' W 123°59'1 1.4 21.7
2014-Dec-11 05:00N 26°23' W 123°58'1 1.4 21.7
2014-Dec-11 04:00N 26°22' W 123°59'2 1.7 21.7
2014-Dec-11 03:00N 26°23' W 123°58'0 0.0 21.7
2014-Dec-11 01:00N 26°23' W 123°58'1 0.6 21.6
2014-Dec-11 00:00N 26°24' W 123°58'0 0.1 21.7
2014-Dec-10 23:00N 26°24' W 123°58'0 0.0 21.7
2014-Dec-10 22:00N 26°24' W 123°58'0 0.2 21.7
2014-Dec-10 21:00N 26°24' W 123°59'0 0.1 21.7
2014-Dec-10 20:00N 26°24' W 123°59'0 0.0 21.7
2014-Dec-10 18:00N 26°24' W 123°59'1 1.1 21.7
2014-Dec-10 17:00N 26°25' W 123°59'0 0.0 21.7
2014-Dec-10 14:00N 26°25' W 123°59'1 0.8 21.7
2014-Dec-10 13:00N 26°25' W 124°00'0 0.0 21.7
2014-Dec-10 12:00N 26°25' W 124°00'0 0.3 21.7
2014-Dec-10 11:00N 26°25' W 124°00'0 0.2 21.7
2014-Dec-10 09:00N 26°25' W 124°00'1 0.2 21.7
2014-Dec-10 05:00N 26°24' W 123°59'0 0.4 21.7
2014-Dec-10 04:00N 26°24' W 123°59'1 0.7 21.7
2014-Dec-10 02:00N 26°26' W 123°59'1 0.4 21.8
2014-Dec-10 00:00N 26°27' W 123°58'1 0.6 21.8
2014-Dec-09 23:00N 26°27' W 123°59'0 0.0 21.8
2014-Dec-09 21:00N 26°27' W 123°59'0 0.0 21.8
2014-Dec-09 20:00N 26°27' W 123°59'1 0.4 21.8
2014-Dec-09 18:00N 26°28' W 123°59'0 0.4 21.7
2014-Dec-09 17:00N 26°28' W 123°59'0 0.0 21.7
2014-Dec-09 16:00N 26°28' W 123°59'1 0.5 21.7
2014-Dec-09 14:00N 26°29' W 123°59'1 0.8 21.7
2014-Dec-09 13:00N 26°29' W 124°00'0 0.1 21.7
2014-Dec-09 10:00N 26°29' W 124°00'0 0.0 21.7
2014-Dec-09 09:00N 26°29' W 124°00'1 0.2 21.7
2014-Dec-09 06:00N 26°29' W 123°60'0 0.0 21.7
2014-Dec-09 05:00N 26°29' W 123°60'0 0.0 21.7
2014-Dec-09 04:00N 26°29' W 123°60'1 0.3 21.7
2014-Dec-09 02:00N 26°29' W 123°59'1 0.2 21.7
2014-Dec-08 21:00N 26°30' W 123°59'1 0.2 21.8
2014-Dec-08 18:00N 26°31' W 123°58'0 0.0 21.6
2014-Dec-08 17:00N 26°31' W 123°58'0 0.0 21.6
2014-Dec-08 16:00N 26°31' W 123°58'0 0.1 21.6
2014-Dec-08 14:00N 26°31' W 123°58'0 0.4 21.6
2014-Dec-08 13:00N 26°31' W 123°59'0 0.1 21.6
2014-Dec-08 12:00N 26°31' W 123°59'0 0.4 21.6
2014-Dec-08 11:00N 26°31' W 123°58'0 0.1 21.6
2014-Dec-08 06:00N 26°31' W 123°58'0 0.2 21.6
2014-Dec-08 03:00N 26°31' W 123°58'1 0.3 21.6
2014-Dec-08 01:00N 26°32' W 123°58'   21.6

Dump ship's entire track history